createdAt,value
2023-05-08T00:03:40.050Z,4.62
2023-05-08T00:08:42.451Z,4.57
2023-05-08T00:13:44.840Z,4.47
2023-05-08T00:18:46.936Z,4.38
2023-05-08T00:23:49.105Z,4.25
2023-05-08T00:28:51.395Z,4.12
2023-05-08T00:33:53.579Z,4.01
2023-05-08T00:38:55.759Z,3.86
2023-05-08T00:43:58.046Z,3.71
2023-05-08T00:49:01.150Z,3.56
2023-05-08T00:54:03.888Z,3.46
2023-05-08T00:59:11.184Z,3.41
2023-05-08T01:04:14.680Z,3.35
2023-05-08T01:09:16.856Z,3.23
2023-05-08T01:14:37.167Z,3.19
2023-05-08T01:20:06.690Z,3.21
2023-05-08T01:25:44.003Z,3.26
2023-05-08T01:31:11.783Z,3.24
2023-05-08T01:36:57.489Z,3.21
2023-05-08T01:42:13.905Z,3.14
2023-05-08T01:47:18.679Z,3.05
2023-05-08T01:52:32.915Z,3.05
2023-05-08T01:57:39.845Z,3.01
2023-05-08T02:02:42.466Z,2.94
2023-05-08T02:07:48.120Z,2.87
2023-05-08T02:12:51.200Z,2.79
2023-05-08T02:17:55.058Z,2.71
2023-05-08T02:22:57.894Z,2.63
2023-05-08T02:28:01.105Z,2.55
2023-05-08T02:33:05.512Z,2.51
2023-05-08T02:38:10.388Z,2.56
2023-05-08T02:43:12.987Z,2.48
2023-05-08T02:48:24.926Z,2.44
2023-05-08T02:53:43.773Z,2.30
2023-05-08T02:59:11.652Z,2.28
2023-05-08T03:04:25.207Z,2.26
2023-05-08T03:09:36.769Z,2.22
2023-05-08T03:14:44.067Z,2.23
2023-05-08T03:19:51.970Z,2.24
2023-05-08T03:24:56.263Z,2.27
2023-05-08T03:30:01.518Z,2.31
2023-05-08T03:35:05.189Z,2.39
2023-05-08T03:40:08.349Z,2.47
2023-05-08T03:45:11.055Z,2.56
2023-05-08T03:50:13.579Z,2.69
2023-05-08T03:55:16.130Z,2.87
2023-05-08T04:00:36.439Z,3.07
2023-05-08T04:05:49.583Z,3.35
2023-05-08T04:11:26.425Z,3.65
2023-05-08T04:16:32.625Z,3.92
2023-05-08T04:21:36.696Z,4.15
2023-05-08T04:26:40.304Z,4.45
2023-05-08T04:31:43.132Z,4.70
2023-05-08T04:36:45.811Z,4.95
2023-05-08T04:41:48.534Z,5.19
2023-05-08T04:46:50.907Z,5.40
2023-05-08T04:51:53.689Z,5.63
2023-05-08T04:56:55.876Z,5.88
2023-05-08T05:01:58.548Z,6.12
2023-05-08T05:07:01.376Z,6.39
2023-05-08T05:12:04.570Z,6.66
2023-05-08T05:17:06.754Z,6.93
2023-05-08T05:22:10.275Z,7.19
2023-05-08T05:27:12.463Z,7.45
2023-05-08T05:32:14.752Z,7.71
2023-05-08T05:37:17.128Z,7.95
2023-05-08T05:42:19.309Z,8.18
2023-05-08T05:47:21.625Z,8.43
2023-05-08T05:52:23.879Z,8.71
2023-05-08T05:57:26.066Z,8.98
2023-05-08T06:02:28.395Z,9.21
2023-05-08T06:07:30.853Z,9.44
2023-05-08T06:12:33.027Z,9.65
2023-05-08T06:17:35.128Z,9.92
2023-05-08T06:22:39.754Z,10.12
2023-05-08T06:27:41.937Z,10.33
2023-05-08T06:32:44.152Z,10.57
2023-05-08T06:37:46.522Z,10.82
2023-05-08T06:42:48.902Z,11.10
2023-05-08T06:47:51.007Z,11.35
2023-05-08T06:52:53.070Z,11.49
2023-05-08T06:57:55.556Z,11.70
2023-05-08T07:02:57.794Z,11.97
2023-05-08T07:08:00.025Z,12.23
2023-05-08T07:13:02.296Z,12.40
2023-05-08T07:18:04.727Z,12.59
2023-05-08T07:23:07.308Z,12.82
2023-05-08T07:28:09.485Z,12.95
2023-05-08T07:33:12.280Z,13.07
2023-05-08T07:38:14.566Z,13.26
2023-05-08T07:43:16.863Z,13.58
2023-05-08T07:48:19.548Z,13.73
2023-05-08T07:53:21.637Z,13.87
2023-05-08T07:58:24.022Z,14.09
2023-05-08T08:03:26.370Z,14.19
2023-05-08T08:08:28.796Z,14.38
2023-05-08T08:13:32.431Z,14.48
2023-05-08T08:18:37.666Z,14.58
2023-05-08T08:23:39.852Z,14.67
2023-05-08T08:28:42.459Z,14.78
2023-05-08T08:33:44.632Z,14.96
2023-05-08T08:38:46.815Z,15.06
2023-05-08T08:43:49.214Z,15.08
2023-05-08T08:48:54.379Z,15.18
2023-05-08T08:54:28.185Z,15.30
2023-05-08T08:59:32.629Z,15.47
2023-05-08T09:04:34.710Z,15.46
2023-05-08T09:09:40.544Z,15.46
2023-05-08T09:14:43.379Z,15.53
2023-05-08T09:19:49.054Z,15.64
2023-05-08T09:24:59.923Z,15.81
2023-05-08T09:30:10.071Z,15.88
2023-05-08T09:35:12.674Z,16.02
2023-05-08T09:40:20.992Z,16.23
2023-05-08T09:45:31.712Z,16.38
2023-05-08T09:50:34.105Z,16.49
2023-05-08T09:55:48.723Z,16.46
2023-05-08T10:00:51.193Z,16.40
2023-05-08T10:05:53.450Z,16.51
2023-05-08T10:11:14.308Z,16.70
2023-05-08T10:16:18.229Z,16.85
2023-05-08T10:21:20.783Z,17.01
2023-05-08T10:26:30.766Z,17.06
2023-05-08T10:31:36.147Z,17.08
2023-05-08T10:36:38.809Z,17.23
2023-05-08T10:41:41.412Z,17.40
2023-05-08T10:47:22.097Z,17.56
2023-05-08T10:52:29.501Z,17.76
2023-05-08T10:57:32.003Z,17.84
2023-05-08T11:02:36.584Z,17.87
2023-05-08T11:07:58.788Z,17.94
2023-05-08T11:13:01.630Z,18.00
2023-05-08T11:18:13.116Z,18.13
2023-05-08T11:23:25.826Z,18.26
2023-05-08T11:28:32.738Z,18.32
2023-05-08T11:33:37.550Z,18.33
2023-05-08T11:38:40.451Z,18.35
2023-05-08T11:44:00.664Z,18.40
2023-05-08T11:49:03.154Z,18.42
2023-05-08T11:54:06.261Z,18.53
2023-05-08T11:59:09.064Z,18.47
2023-05-08T12:04:12.797Z,18.38
2023-05-08T12:09:18.358Z,18.30
2023-05-08T12:14:23.195Z,18.52
2023-05-08T12:19:25.271Z,18.63
2023-05-08T12:24:27.450Z,18.63
2023-05-08T12:29:29.534Z,18.87
2023-05-08T12:34:32.030Z,19.08
2023-05-08T12:39:36.939Z,19.03
2023-05-08T12:44:38.957Z,19.34
2023-05-08T12:49:41.346Z,19.66
2023-05-08T12:54:47.934Z,19.72
2023-05-08T12:59:50.118Z,19.66
2023-05-08T13:04:55.503Z,19.83
2023-05-08T13:10:03.131Z,20.20
2023-05-08T13:15:05.685Z,20.49
2023-05-08T13:20:08.841Z,20.72
2023-05-08T13:25:10.998Z,20.99
2023-05-08T13:30:15.093Z,21.15
2023-05-08T13:35:18.933Z,21.36
2023-05-08T13:40:21.005Z,21.55
2023-05-08T13:45:23.605Z,21.75
2023-05-08T13:50:25.681Z,22.19
2023-05-08T13:55:27.883Z,24.30
2023-05-08T14:00:30.257Z,28.34
2023-05-08T14:05:32.440Z,32.95
2023-05-08T14:10:34.929Z,36.51
2023-05-08T14:15:37.912Z,38.70
2023-05-08T14:20:40.335Z,41.88
2023-05-08T14:25:42.506Z,45.51
2023-05-08T14:30:44.588Z,49.37
2023-05-08T14:35:48.004Z,52.79
2023-05-08T14:40:50.596Z,55.42
2023-05-08T14:45:52.753Z,57.05
2023-05-08T14:50:56.818Z,58.48
2023-05-08T14:55:59.261Z,59.58
2023-05-08T15:01:01.692Z,60.13
2023-05-08T15:06:04.550Z,60.83
2023-05-08T15:11:06.571Z,60.70
2023-05-08T15:16:09.096Z,60.70
2023-05-08T15:21:11.242Z,60.49
2023-05-08T15:26:13.432Z,60.64
2023-05-08T15:31:15.848Z,60.95
2023-05-08T15:36:18.002Z,61.22
2023-05-08T15:41:21.420Z,61.34
2023-05-08T15:46:23.651Z,60.96
2023-05-08T15:51:26.094Z,59.92
2023-05-08T15:56:28.280Z,59.51
2023-05-08T16:01:30.387Z,58.95
2023-05-08T16:06:32.679Z,58.47
2023-05-08T16:11:34.726Z,57.74
2023-05-08T16:16:38.760Z,55.19
2023-05-08T16:21:40.529Z,54.62
2023-05-08T16:26:42.612Z,54.55
2023-05-08T16:31:44.826Z,54.40
2023-05-08T16:36:46.980Z,54.12
2023-05-08T16:41:48.990Z,53.61
2023-05-08T16:46:51.403Z,53.11
2023-05-08T16:51:53.414Z,52.19
2023-05-08T16:56:55.697Z,50.95
2023-05-08T17:01:57.717Z,49.93
2023-05-08T17:07:00.428Z,48.21
2023-05-08T17:12:02.412Z,47.38
2023-05-08T17:17:04.701Z,46.63
2023-05-08T17:22:06.789Z,45.70
2023-05-08T17:27:09.238Z,44.65
2023-05-08T17:32:11.503Z,43.60
2023-05-08T17:37:13.805Z,42.03
2023-05-08T17:42:16.093Z,40.07
2023-05-08T17:47:18.200Z,38.44
2023-05-08T17:52:20.459Z,36.71
2023-05-08T17:57:22.512Z,34.70
2023-05-08T18:02:24.977Z,31.95
2023-05-08T18:07:27.732Z,29.74
2023-05-08T18:12:32.084Z,28.11
2023-05-08T18:17:34.145Z,26.49
2023-05-08T18:22:36.748Z,24.76
2023-05-08T18:27:42.720Z,22.92
2023-05-08T18:32:44.826Z,21.23
2023-05-08T18:37:47.902Z,19.93
2023-05-08T18:42:49.911Z,18.90
2023-05-08T18:47:53.626Z,17.95
2023-05-08T18:52:55.994Z,17.15
2023-05-08T18:57:58.178Z,16.42
2023-05-08T19:03:00.529Z,15.76
2023-05-08T19:08:05.619Z,15.20
2023-05-08T19:13:07.746Z,14.62
2023-05-08T19:18:09.830Z,14.14
2023-05-08T19:23:11.965Z,13.68
2023-05-08T19:28:15.478Z,13.30
2023-05-08T19:33:21.573Z,12.94
2023-05-08T19:38:25.993Z,12.68
2023-05-08T19:43:28.176Z,12.42
2023-05-08T19:48:30.207Z,12.12
2023-05-08T19:53:32.440Z,11.82
2023-05-08T19:58:34.623Z,11.58
2023-05-08T20:03:37.415Z,11.39
2023-05-08T20:08:39.506Z,11.18
2023-05-08T20:13:41.601Z,10.99
2023-05-08T20:18:44.384Z,10.82
2023-05-08T20:23:46.572Z,10.69
2023-05-08T20:28:48.962Z,10.56
2023-05-08T20:33:51.159Z,10.40
2023-05-08T20:38:54.817Z,10.28
2023-05-08T20:43:59.656Z,10.16
2023-05-08T20:49:03.645Z,10.05
2023-05-08T20:55:11.185Z,9.95
2023-05-08T21:00:14.751Z,9.85
2023-05-08T21:05:18.183Z,9.77
2023-05-08T21:10:20.642Z,9.67
2023-05-08T21:15:22.758Z,9.58
2023-05-08T21:20:24.951Z,9.46
2023-05-08T21:25:27.124Z,9.33
2023-05-08T21:30:36.170Z,9.16
2023-05-08T21:35:38.371Z,9.01
2023-05-08T21:40:40.762Z,8.91
2023-05-08T21:45:43.040Z,8.77
2023-05-08T21:50:45.345Z,8.61
2023-05-08T21:55:47.506Z,8.52
2023-05-08T22:00:49.684Z,8.42
2023-05-08T22:05:51.872Z,8.31
2023-05-08T22:10:53.960Z,8.21
2023-05-08T22:15:56.785Z,8.10
2023-05-08T22:20:59.038Z,7.97
2023-05-08T22:26:02.441Z,7.86
2023-05-08T22:31:06.275Z,7.77
2023-05-08T22:36:09.445Z,7.66
2023-05-08T22:41:11.571Z,7.54
2023-05-08T22:46:16.478Z,7.47
2023-05-08T22:51:19.109Z,7.38
2023-05-08T22:56:21.700Z,7.15
2023-05-08T23:01:24.118Z,7.00
2023-05-08T23:06:26.582Z,6.91
2023-05-08T23:11:28.660Z,6.83
2023-05-08T23:16:30.886Z,6.78
2023-05-08T23:21:33.548Z,6.70
2023-05-08T23:26:35.727Z,6.67
2023-05-08T23:31:37.870Z,6.62
2023-05-08T23:36:40.198Z,6.57
2023-05-08T23:41:42.493Z,6.51
2023-05-08T23:46:45.857Z,6.45
2023-05-08T23:51:48.085Z,6.35
2023-05-08T23:56:50.377Z,6.27
